Time;durP1;ratioP1;P1;durP2;ratioP2;P2;SDS_P1;SDS_P2;PMS_P1;PMS_P2;Temp;Humidity;BMP_temperature;BMP_pressure;BME280_temperature;BME280_humidity;BME280_pressure;Samples;Min_cycle;Max_cycle;Signal;HPM_P1;HPM_P2
2022/07/03 00:00:31;;;;;;;1.48;1.38;;;20.80;53.40;;;;;;5008349;28;20037;-81
2022/07/03 00:02:56;;;;;;;2.53;1.27;;;20.70;53.00;;;;;;5020709;28;20029;-81
2022/07/03 00:05:22;;;;;;;2.53;1.42;;;20.50;53.40;;;;;;5007424;28;20091;-81
2022/07/03 00:07:47;;;;;;;3.03;1.70;;;20.50;54.10;;;;;;5006726;28;20032;-81
2022/07/03 00:10:13;;;;;;;4.30;1.40;;;20.40;53.70;;;;;;5007898;28;20104;-79
2022/07/03 00:12:39;;;;;;;1.98;1.25;;;20.30;55.20;;;;;;5021885;28;20120;-81
2022/07/03 00:15:05;;;;;;;2.35;1.42;;;20.40;54.50;;;;;;5018911;28;20033;-81
2022/07/03 00:17:30;;;;;;;1.25;1.00;;;20.30;55.10;;;;;;4996790;28;20033;-81
2022/07/03 00:19:56;;;;;;;3.35;1.50;;;20.30;55.80;;;;;;5003751;28;20079;-80
2022/07/03 00:22:23;;;;;;;2.15;1.30;;;20.30;56.60;;;;;;5008503;28;20044;-79
2022/07/03 00:24:53;;;;;;;2.70;1.40;;;20.20;56.50;;;;;;5008440;28;20120;-81
2022/07/03 00:27:21;;;;;;;1.92;1.13;;;20.30;57.30;;;;;;4992828;28;20124;-80
2022/07/03 00:29:46;;;;;;;3.60;1.60;;;20.20;57.00;;;;;;5020703;28;20048;-81
2022/07/03 00:32:13;;;;;;;5.32;1.45;;;20.00;55.50;;;;;;5005867;28;20038;-80
2022/07/03 00:34:39;;;;;;;4.28;1.52;;;19.80;55.60;;;;;;4995503;28;20036;-81
2022/07/03 00:37:09;;;;;;;2.35;1.27;;;19.80;56.00;;;;;;5022136;28;20032;-80
2022/07/03 00:39:39;;;;;;;2.03;1.50;;;19.80;56.50;;;;;;4993074;28;20041;-79
2022/07/03 00:42:05;;;;;;;2.72;1.40;;;20.00;57.50;;;;;;4992453;28;20111;-78
2022/07/03 00:44:33;;;;;;;2.55;1.50;;;19.90;57.00;;;;;;5019948;28;20065;-79
2022/07/03 00:46:59;;;;;;;1.27;1.02;;;19.80;56.70;;;;;;5016317;28;20033;-79
2022/07/03 00:49:25;;;;;;;3.40;1.52;;;19.60;56.70;;;;;;4994346;28;20037;-79
2022/07/03 00:51:53;;;;;;;2.13;1.33;;;19.60;56.70;;;;;;5023100;28;20075;-78
2022/07/03 00:54:22;;;;;;;2.30;1.60;;;19.60;56.50;;;;;;5008373;28;20059;-79
2022/07/03 00:56:50;;;;;;;1.50;1.35;;;19.50;57.70;;;;;;5022316;28;20021;-79
2022/07/03 00:59:16;;;;;;;2.78;1.50;;;19.60;57.20;;;;;;4995983;28;20037;-79
2022/07/03 01:01:41;;;;;;;3.65;1.63;;;19.60;57.80;;;;;;5008662;28;20507;-79
2022/07/03 01:04:18;;;;;;;1.63;1.52;;;19.50;57.20;;;;;;5010318;28;20037;-79
2022/07/03 01:07:06;;;;;;;2.47;1.30;;;19.60;58.70;;;;;;5011890;28;20037;-79
2022/07/03 01:09:48;;;;;;;1.40;1.30;;;19.50;58.50;;;;;;4990742;28;20026;-79
2022/07/03 01:12:20;;;;;;;2.30;1.17;;;19.40;58.50;;;;;;5006337;28;20180;-78
2022/07/03 01:15:04;;;;;;;3.72;1.73;;;19.30;58.00;;;;;;5006643;28;20029;-78
2022/07/03 01:17:36;;;;;;;4.22;1.73;;;19.20;59.20;;;;;;5021788;28;20405;-79
2022/07/03 01:20:02;;;;;;;1.80;1.42;;;19.20;58.70;;;;;;5020688;28;20133;-78
2022/07/03 01:22:29;;;;;;;2.17;1.60;;;19.20;58.90;;;;;;5007056;28;20393;-79
2022/07/03 01:25:13;;;;;;;2.90;1.95;;;19.10;59.00;;;;;;5022908;28;20033;-79
2022/07/03 01:27:54;;;;;;;2.55;1.63;;;19.10;59.40;;;;;;5038627;28;20036;-78
2022/07/03 01:30:19;;;;;;;2.28;1.20;;;19.10;61.70;;;;;;5007787;28;20148;-79
2022/07/03 01:32:46;;;;;;;3.22;1.60;;;19.10;61.90;;;;;;4999350;28;20125;-78
2022/07/03 01:35:13;;;;;;;2.10;1.38;;;19.00;61.40;;;;;;5008297;28;20067;-78
2022/07/03 01:37:39;;;;;;;1.63;1.48;;;19.10;61.20;;;;;;5027703;28;20059;-78
2022/07/03 01:40:06;;;;;;;2.08;1.40;;;19.10;61.70;;;;;;5009889;28;20060;-78
2022/07/03 01:42:38;;;;;;;2.90;2.10;;;18.80;61.90;;;;;;5008866;28;20654;-77
2022/07/03 01:45:04;;;;;;;2.72;1.33;;;18.80;62.10;;;;;;5024681;28;20127;-78
2022/07/03 01:47:30;;;;;;;4.38;1.60;;;18.70;61.00;;;;;;5009481;28;20032;-78
2022/07/03 01:49:56;;;;;;;1.88;1.40;;;18.70;62.30;;;;;;5007222;28;20033;-78
2022/07/03 01:52:21;;;;;;;2.45;1.75;;;18.70;62.00;;;;;;5011168;28;20416;-78
2022/07/03 01:54:47;;;;;;;2.22;1.60;;;18.70;62.60;;;;;;5009479;28;20091;-78
2022/07/03 01:57:13;;;;;;;1.58;1.48;;;18.60;60.80;;;;;;5026758;28;20045;-78
2022/07/03 01:59:39;;;;;;;1.75;1.45;;;18.50;61.00;;;;;;5009899;28;20040;-78
2022/07/03 02:02:09;;;;;;;3.65;1.38;;;18.50;62.50;;;;;;5019205;28;20037;-75
2022/07/03 02:04:39;;;;;;;2.40;1.60;;;18.50;62.40;;;;;;5010314;28;20652;-77
2022/07/03 02:07:09;;;;;;;2.80;1.70;;;18.50;62.70;;;;;;5022646;28;20025;-78
2022/07/03 02:10:07;;;;;;;5.63;1.80;;;18.40;61.90;;;;;;4996496;28;20060;-78
2022/07/03 02:12:45;;;;;;;2.25;1.48;;;18.40;63.20;;;;;;5003926;28;20384;-77
2022/07/03 02:15:11;;;;;;;2.38;1.70;;;18.40;62.20;;;;;;5028450;28;20044;-76
2022/07/03 02:17:46;;;;;;;3.03;1.80;;;18.40;63.30;;;;;;5023919;28;20428;-77
2022/07/03 02:20:13;;;;;;;2.15;1.30;;;18.30;63.50;;;;;;5021016;28;20199;-77
2022/07/03 02:22:47;;;;;;;3.58;2.00;;;18.30;63.80;;;;;;5008019;28;20033;-78
2022/07/03 02:25:19;;;;;;;2.00;1.50;;;18.40;64.90;;;;;;5023518;28;20119;-76
2022/07/03 02:27:54;;;;;;;1.90;1.65;;;18.40;65.40;;;;;;5009199;28;20037;-77
2022/07/03 02:30:20;;;;;;;3.72;1.75;;;18.30;64.10;;;;;;5008077;28;20040;-78
2022/07/03 02:32:49;;;;;;;7.82;1.58;;;18.20;63.50;;;;;;4997616;28;20025;-77
2022/07/03 02:35:22;;;;;;;2.15;1.52;;;18.30;63.90;;;;;;5011205;28;20037;-78
2022/07/03 02:37:50;;;;;;;3.85;1.40;;;18.20;62.50;;;;;;5007522;28;20034;-77
2022/07/03 02:40:44;;;;;;;3.13;1.63;;;18.20;63.50;;;;;;5010049;28;20033;-76
2022/07/03 02:43:34;;;;;;;2.53;1.52;;;18.20;63.40;;;;;;5009890;28;20037;-76
2022/07/03 02:46:50;;;;;;;2.33;1.40;;;18.10;63.70;;;;;;5023569;28;20041;-77
2022/07/03 02:49:49;;;;;;;4.35;2.03;;;17.90;63.30;;;;;;5015075;28;20033;-76
2022/07/03 02:52:24;;;;;;;2.17;1.85;;;17.80;63.30;;;;;;5039867;28;20049;-78
2022/07/03 02:54:51;;;;;;;2.15;1.33;;;17.80;63.60;;;;;;5023299;28;20496;-78
2022/07/03 02:57:19;;;;;;;3.53;1.27;;;17.80;64.00;;;;;;5007499;28;20059;-76
2022/07/03 02:59:58;;;;;;;3.60;1.50;;;17.80;64.80;;;;;;5021705;28;20025;-74
2022/07/03 03:02:39;;;;;;;7.20;1.58;;;17.80;64.90;;;;;;5027951;28;20032;-73
2022/07/03 03:05:25;;;;;;;2.78;1.40;;;17.70;65.70;;;;;;5007010;28;20143;-74
2022/07/03 03:08:01;;;;;;;3.63;1.70;;;17.80;65.50;;;;;;4992558;28;20033;-74
2022/07/03 03:10:27;;;;;;;2.35;1.40;;;17.70;65.70;;;;;;5036154;28;20052;-73
2022/07/03 03:13:02;;;;;;;2.75;1.73;;;17.80;66.80;;;;;;5005148;28;20457;-74
2022/07/03 03:15:28;;;;;;;2.85;1.88;;;17.70;66.30;;;;;;5011171;28;20030;-73
2022/07/03 03:17:53;;;;;;;1.70;1.42;;;17.70;66.80;;;;;;5008056;28;20132;-73
2022/07/03 03:20:22;;;;;;;1.65;1.42;;;17.60;67.00;;;;;;5007437;28;20033;-74
2022/07/03 03:23:11;;;;;;;3.10;1.67;;;17.60;66.10;;;;;;5005183;28;20088;-73
2022/07/03 03:25:37;;;;;;;1.85;1.25;;;17.60;66.50;;;;;;5027705;28;20036;-74
2022/07/03 03:28:03;;;;;;;2.85;1.77;;;17.60;66.30;;;;;;5008197;28;20417;-73
2022/07/03 03:30:29;;;;;;;1.80;1.63;;;17.50;66.50;;;;;;5009586;28;20055;-73
2022/07/03 03:32:54;;;;;;;3.40;1.83;;;17.40;66.10;;;;;;5007364;28;20044;-74
2022/07/03 03:35:20;;;;;;;1.58;1.48;;;17.30;67.00;;;;;;5023815;28;20033;-74
2022/07/03 03:37:48;;;;;;;3.75;1.80;;;17.20;65.70;;;;;;5006296;28;20116;-74
2022/07/03 03:40:14;;;;;;;2.92;1.70;;;17.10;65.00;;;;;;5007243;28;20762;-74
2022/07/03 03:42:40;;;;;;;1.52;1.38;;;17.20;65.00;;;;;;5009522;28;20037;-73
2022/07/03 03:45:06;;;;;;;2.35;1.30;;;17.20;65.20;;;;;;5007726;28;20377;-74
2022/07/03 03:47:32;;;;;;;3.75;1.38;;;17.20;65.50;;;;;;5011169;28;20159;-75
2022/07/03 03:49:57;;;;;;;2.10;1.52;;;17.20;64.90;;;;;;5005488;28;20072;-73
2022/07/03 03:52:23;;;;;;;3.85;1.80;;;17.20;64.60;;;;;;5022597;28;20427;-73
2022/07/03 03:54:49;;;;;;;2.50;1.83;;;17.10;64.20;;;;;;5020745;28;20060;-74
2022/07/03 03:57:18;;;;;;;3.92;1.48;;;17.10;64.40;;;;;;5006890;28;20499;-73
2022/07/03 03:59:44;;;;;;;2.53;1.80;;;17.10;63.80;;;;;;4991518;28;20075;-73
2022/07/03 04:02:10;;;;;;;3.80;1.88;;;17.10;63.80;;;;;;5019809;28;20052;-72
2022/07/03 04:04:35;;;;;;;2.03;1.60;;;17.10;64.40;;;;;;5037698;28;20064;-74
2022/07/03 04:07:01;;;;;;;4.70;1.98;;;17.10;64.10;;;;;;5024205;28;20119;-74
2022/07/03 04:09:26;;;;;;;2.55;1.40;;;17.20;65.00;;;;;;5024363;28;20071;-74
2022/07/03 04:11:52;;;;;;;2.22;1.20;;;17.20;65.00;;;;;;5022092;28;20489;-74
2022/07/03 04:14:18;;;;;;;2.83;1.67;;;17.30;65.40;;;;;;4993581;28;20033;-74
2022/07/03 04:16:43;;;;;;;1.77;1.58;;;17.40;67.90;;;;;;5003341;28;20029;-74
2022/07/03 04:19:09;;;;;;;4.75;1.60;;;17.50;67.70;;;;;;5022647;28;20028;-74
2022/07/03 04:21:34;;;;;;;4.88;1.33;;;17.60;67.60;;;;;;5023773;28;20025;-74
2022/07/03 04:24:00;;;;;;;2.83;1.67;;;17.60;67.50;;;;;;5017302;28;20051;-74
2022/07/03 04:26:25;;;;;;;3.60;1.63;;;17.70;68.40;;;;;;5019630;28;20479;-74
2022/07/03 04:28:51;;;;;;;4.18;2.13;;;17.70;67.50;;;;;;5006989;28;20481;-75
2022/07/03 04:31:16;;;;;;;3.08;1.60;;;17.60;66.40;;;;;;5020334;28;20509;-73
2022/07/03 04:33:42;;;;;;;5.28;1.83;;;17.70;65.90;;;;;;5010296;28;20124;-75
2022/07/03 04:36:07;;;;;;;3.35;1.58;;;17.70;66.00;;;;;;5018818;28;20060;-74
2022/07/03 04:38:33;;;;;;;4.25;2.17;;;17.90;66.60;;;;;;5005579;28;20086;-75
2022/07/03 04:40:58;;;;;;;1.70;1.30;;;18.00;68.80;;;;;;5004780;28;20029;-74
2022/07/03 04:43:24;;;;;;;1.65;1.40;;;17.90;65.30;;;;;;4990326;28;20408;-75
2022/07/03 04:45:50;;;;;;;5.90;1.40;;;17.90;64.70;;;;;;4992677;28;20783;-74
2022/07/03 04:48:15;;;;;;;3.08;1.45;;;17.90;65.70;;;;;;5022455;28;20463;-75
2022/07/03 04:50:41;;;;;;;3.35;1.60;;;18.00;65.50;;;;;;5038234;28;20029;-74
2022/07/03 04:53:06;;;;;;;4.07;1.63;;;18.00;65.40;;;;;;5021106;28;20040;-74
2022/07/03 04:55:32;;;;;;;2.15;1.50;;;18.00;66.60;;;;;;5006547;28;20032;-74
2022/07/03 04:57:57;;;;;;;1.73;1.35;;;18.10;67.10;;;;;;5007150;28;20424;-75
2022/07/03 05:00:23;;;;;;;3.05;1.95;;;18.20;65.50;;;;;;5010181;28;20036;-74
2022/07/03 05:02:48;;;;;;;1.55;1.35;;;18.30;66.00;;;;;;5021198;28;20110;-74
2022/07/03 05:05:14;;;;;;;2.15;1.42;;;18.20;66.60;;;;;;5025016;28;20041;-75
2022/07/03 05:07:40;;;;;;;2.20;1.77;;;18.20;65.60;;;;;;5027896;28;20089;-74
2022/07/03 05:10:06;;;;;;;1.85;1.65;;;18.10;66.40;;;;;;5024925;28;20369;-74
2022/07/03 05:12:31;;;;;;;1.70;1.60;;;18.10;64.90;;;;;;5042762;28;20044;-73
2022/07/03 05:14:57;;;;;;;7.88;1.70;;;18.30;65.90;;;;;;5043610;28;20033;-74
2022/07/03 05:17:22;;;;;;;3.63;1.65;;;18.50;65.80;;;;;;5024130;28;20037;-75
2022/07/03 05:20:23;;;;;;;2.83;1.60;;;18.80;65.30;;;;;;5040170;28;20033;-74
2022/07/03 05:22:33;;;;;;;3.93;1.30;;;19.00;64.90;;;;;;5026696;28;20484;-74
2022/07/03 05:24:59;;;;;;;1.67;1.30;;;19.20;64.30;;;;;;5041429;28;20059;-74
2022/07/03 05:27:25;;;;;;;6.57;2.10;;;19.40;64.50;;;;;;5010201;28;20029;-74
2022/07/03 05:29:50;;;;;;;3.10;2.10;;;19.70;64.50;;;;;;5024149;28;20053;-74
2022/07/03 05:32:16;;;;;;;3.85;1.92;;;19.90;63.90;;;;;;5022282;28;20472;-76
2022/07/03 05:34:41;;;;;;;3.15;2.10;;;20.20;63.90;;;;;;5007138;28;20484;-73
2022/07/03 05:37:07;;;;;;;2.50;1.40;;;20.60;64.50;;;;;;5010229;28;20033;-75
2022/07/03 05:39:32;;;;;;;3.67;1.75;;;20.80;62.40;;;;;;5024945;28;20033;-74
2022/07/03 05:41:58;;;;;;;5.57;1.67;;;21.00;63.60;;;;;;5008259;28;20029;-74
2022/07/03 05:44:23;;;;;;;5.30;1.70;;;21.30;63.80;;;;;;5012887;28;20041;-74
2022/07/03 05:46:49;;;;;;;1.92;1.45;;;21.50;62.50;;;;;;5010943;28;20393;-74
2022/07/03 05:49:14;;;;;;;2.40;1.65;;;21.70;61.00;;;;;;5025539;28;20041;-74
2022/07/03 05:51:40;;;;;;;3.88;2.28;;;21.70;60.90;;;;;;5009117;28;20056;-74
2022/07/03 05:54:05;;;;;;;5.60;2.92;;;22.00;63.30;;;;;;5023524;28;20033;-76
2022/07/03 05:56:31;;;;;;;4.55;1.80;;;22.30;63.90;;;;;;5009215;28;20048;-75
2022/07/03 05:58:56;;;;;;;2.45;1.55;;;22.60;63.90;;;;;;5021113;28;20048;-75
2022/07/03 06:01:23;;;;;;;4.78;2.60;;;22.90;63.30;;;;;;5025050;28;20102;-75
2022/07/03 06:03:49;;;;;;;2.63;1.88;;;22.90;60.80;;;;;;5006874;28;20029;-73
2022/07/03 06:06:15;;;;;;;3.83;1.77;;;23.10;62.70;;;;;;5027590;28;20032;-75
2022/07/03 06:08:40;;;;;;;5.68;2.08;;;23.50;62.30;;;;;;5025481;28;20369;-74
2022/07/03 06:11:06;;;;;;;3.15;1.95;;;23.60;59.10;;;;;;5023408;28;20657;-75
2022/07/03 06:13:32;;;;;;;4.40;1.70;;;23.90;62.20;;;;;;4996176;28;20033;-75
2022/07/03 06:15:57;;;;;;;4.30;2.00;;;24.20;61.10;;;;;;5019523;28;20032;-75
2022/07/03 06:18:23;;;;;;;5.93;2.38;;;24.20;61.70;;;;;;5007938;28;20040;-75
2022/07/03 06:20:48;;;;;;;4.78;1.83;;;24.50;61.90;;;;;;5011361;28;20476;-75
2022/07/03 06:23:14;;;;;;;4.15;2.47;;;24.90;61.10;;;;;;5007999;28;20033;-75
2022/07/03 06:25:40;;;;;;;3.72;1.83;;;25.20;61.20;;;;;;5011075;28;20049;-75
2022/07/03 06:28:05;;;;;;;6.38;2.10;;;25.40;59.10;;;;;;5022615;28;20033;-76
2022/07/03 06:30:31;;;;;;;4.53;2.53;;;25.50;60.90;;;;;;5006521;28;20040;-75
2022/07/03 06:32:56;;;;;;;5.80;2.00;;;26.00;60.10;;;;;;5011702;28;20021;-77
2022/07/03 06:35:22;;;;;;;3.30;2.17;;;26.20;59.50;;;;;;5026751;28;20039;-75
2022/07/03 06:37:47;;;;;;;5.78;2.55;;;26.40;58.20;;;;;;5006155;28;20153;-76
2022/07/03 06:40:13;;;;;;;4.65;2.13;;;26.70;58.90;;;;;;5039770;28;20515;-76
2022/07/03 06:42:38;;;;;;;3.72;1.90;;;26.80;55.80;;;;;;4988387;28;20037;-75
2022/07/03 06:45:05;;;;;;;3.97;1.70;;;26.80;58.30;;;;;;5021003;28;20045;-75
2022/07/03 06:47:30;;;;;;;7.88;2.72;;;27.10;57.50;;;;;;5022677;28;20060;-75
2022/07/03 06:49:56;;;;;;;4.82;2.65;;;27.20;56.70;;;;;;5006407;28;20061;-75
2022/07/03 06:52:21;;;;;;;4.65;2.30;;;27.10;55.20;;;;;;5021860;28;20045;-75
2022/07/03 06:54:47;;;;;;;4.88;2.25;;;27.60;56.60;;;;;;5009818;28;20029;-77
2022/07/03 06:57:13;;;;;;;3.33;2.03;;;27.90;55.50;;;;;;5021564;28;20033;-75
2022/07/03 06:59:39;;;;;;;4.68;2.53;;;27.30;54.20;;;;;;5020959;28;20033;-75
2022/07/03 07:02:04;;;;;;;6.00;3.28;;;27.70;55.80;;;;;;5018495;28;20038;-75
2022/07/03 07:04:30;;;;;;;3.35;1.90;;;28.00;54.40;;;;;;5009539;28;20037;-76
2022/07/03 07:06:55;;;;;;;3.55;1.92;;;28.20;54.30;;;;;;4995112;28;20079;-75
2022/07/03 07:09:21;;;;;;;6.15;2.28;;;27.40;54.10;;;;;;5008002;28;20098;-80
2022/07/03 07:11:46;;;;;;;3.45;2.20;;;26.80;54.10;;;;;;5007277;28;20064;-80
2022/07/03 07:14:12;;;;;;;4.80;2.38;;;26.90;53.80;;;;;;5006728;28;20033;-81
2022/07/03 07:16:37;;;;;;;4.25;1.92;;;26.70;53.90;;;;;;5009520;28;20029;-81
2022/07/03 07:19:03;;;;;;;5.47;1.92;;;27.30;56.40;;;;;;5024288;28;20552;-80
2022/07/03 07:21:28;;;;;;;3.47;2.35;;;27.30;53.20;;;;;;5006628;28;20381;-81
2022/07/03 07:23:54;;;;;;;10.93;2.55;;;27.10;52.70;;;;;;5021706;28;20056;-81
2022/07/03 07:26:20;;;;;;;3.45;2.03;;;27.60;55.90;;;;;;5010722;28;20032;-80
2022/07/03 07:28:46;;;;;;;4.07;1.98;;;27.80;51.80;;;;;;5022635;28;20036;-81
2022/07/03 07:31:12;;;;;;;3.20;1.90;;;28.60;54.00;;;;;;5020523;28;20033;-81
2022/07/03 07:33:37;;;;;;;3.05;1.83;;;28.70;51.20;;;;;;5008835;28;20496;-81
2022/07/03 07:36:03;;;;;;;4.63;2.80;;;27.80;52.00;;;;;;5025232;28;20056;-81
2022/07/03 07:38:28;;;;;;;3.58;1.60;;;27.90;53.10;;;;;;5038314;28;20488;-81
2022/07/03 07:40:54;;;;;;;6.63;1.73;;;28.60;52.20;;;;;;5007267;28;20037;-80
2022/07/03 07:43:20;;;;;;;5.03;1.95;;;28.70;52.10;;;;;;5021353;28;20032;-79
2022/07/03 07:45:45;;;;;;;1.88;1.25;;;29.60;52.80;;;;;;5010198;28;20101;-81
2022/07/03 07:48:11;;;;;;;4.97;2.10;;;30.10;50.90;;;;;;5006389;28;21011;-81
2022/07/03 07:50:36;;;;;;;3.50;2.00;;;30.60;50.50;;;;;;5007694;28;20037;-79
2022/07/03 07:53:02;;;;;;;4.30;2.50;;;29.90;48.10;;;;;;5004665;28;20029;-81
2022/07/03 07:55:28;;;;;;;3.45;1.90;;;30.00;49.00;;;;;;5035672;28;20043;-81
2022/07/03 07:57:54;;;;;;;4.25;2.17;;;29.60;48.60;;;;;;5004420;28;20025;-80
2022/07/03 08:00:21;;;;;;;3.92;1.73;;;29.50;51.50;;;;;;5009132;28;20861;-81
2022/07/03 08:05:37;;;;;;;5.68;2.38;;;29.70;48.60;;;;;;5026027;28;20102;-79
2022/07/03 08:08:05;;;;;;;3.13;1.60;;;29.70;49.60;;;;;;5024637;28;20116;-81
2022/07/03 08:10:50;;;;;;;5.35;2.20;;;29.80;48.50;;;;;;5022625;28;20402;-81
2022/07/03 08:13:17;;;;;;;5.85;1.70;;;30.20;50.60;;;;;;5009240;28;20048;-81
2022/07/03 08:15:43;;;;;;;4.32;2.20;;;31.10;49.40;;;;;;4989407;28;20680;-81
2022/07/03 08:18:09;;;;;;;3.63;1.90;;;31.50;48.50;;;;;;5018646;28;20492;-82
2022/07/03 08:20:35;;;;;;;4.32;2.20;;;31.40;47.10;;;;;;5023727;28;20095;-81
2022/07/03 08:23:01;;;;;;;4.22;1.73;;;30.50;47.20;;;;;;5004019;28;20031;-82
2022/07/03 08:25:26;;;;;;;5.03;1.70;;;30.90;49.80;;;;;;5010789;28;20089;-82
2022/07/03 08:27:52;;;;;;;5.55;2.05;;;31.70;47.60;;;;;;5006846;28;20064;-80
2022/07/03 08:30:17;;;;;;;5.55;2.65;;;32.20;46.80;;;;;;5009738;28;20033;-82
2022/07/03 08:32:47;;;;;;;7.18;3.15;;;32.10;47.10;;;;;;5007083;28;20452;-83
2022/07/03 08:35:13;;;;;;;5.53;1.95;;;32.50;46.70;;;;;;5022049;28;20556;-83
2022/07/03 08:37:40;;;;;;;6.28;3.00;;;32.60;46.40;;;;;;5003817;28;20100;-83
2022/07/03 08:40:08;;;;;;;4.22;2.17;;;32.70;46.60;;;;;;5012245;28;20454;-78
2022/07/03 08:42:34;;;;;;;8.88;2.85;;;32.90;45.80;;;;;;5010326;28;20120;-83
2022/07/03 08:45:00;;;;;;;7.13;2.78;;;32.80;46.40;;;;;;5022954;28;20049;-84
2022/07/03 08:47:26;;;;;;;5.18;3.45;;;33.00;45.50;;;;;;5028693;28;20089;-80
2022/07/03 08:49:53;;;;;;;8.10;2.25;;;33.30;45.10;;;;;;5022490;28;20425;-84
2022/07/03 08:52:18;;;;;;;4.35;2.15;;;33.40;45.10;;;;;;5024374;28;20485;-81
2022/07/03 08:54:44;;;;;;;3.60;2.35;;;33.30;45.40;;;;;;4995595;28;20033;-84
2022/07/03 08:57:11;;;;;;;6.20;2.38;;;32.70;45.60;;;;;;5013013;28;20033;-83
2022/07/03 08:59:37;;;;;;;6.95;2.78;;;32.70;46.20;;;;;;5027470;28;20036;-83
2022/07/03 09:02:04;;;;;;;4.78;2.40;;;33.10;45.80;;;;;;5012243;28;20627;-80
2022/07/03 09:04:30;;;;;;;4.30;2.00;;;32.60;45.80;;;;;;5000986;28;20032;-81
2022/07/03 09:06:56;;;;;;;3.80;2.50;;;33.10;45.80;;;;;;5032805;28;20082;-80
2022/07/03 09:09:22;;;;;;;2.88;2.03;;;33.30;44.60;;;;;;5012516;28;20108;-79
2022/07/03 09:11:47;;;;;;;3.20;1.83;;;33.40;43.30;;;;;;5028747;28;20408;-79
2022/07/03 09:14:13;;;;;;;3.53;1.92;;;32.80;44.30;;;;;;5013409;28;20111;-80
2022/07/03 09:16:38;;;;;;;5.30;2.00;;;32.90;45.30;;;;;;5027549;28;20064;-79
2022/07/03 09:19:04;;;;;;;4.40;1.90;;;33.20;43.50;;;;;;5024066;28;20049;-79
2022/07/03 09:21:40;;;;;;;11.65;2.30;;;33.40;43.20;;;;;;4998828;28;20051;-79
2022/07/03 09:24:06;;;;;;;;;;;33.70;43.70;;;;;;5025030;28;20034;-78
2022/07/03 09:26:32;;;;;;;3.95;1.83;;;33.80;43.20;;;;;;5027554;28;19970;-79
2022/07/03 09:28:58;;;;;;;4.43;1.70;;;33.80;42.90;;;;;;4995096;28;20417;-79
2022/07/03 09:31:28;;;;;;;4.60;1.73;;;33.80;42.50;;;;;;5011812;28;20397;-79
2022/07/03 09:34:01;;;;;;;4.10;1.50;;;33.80;42.70;;;;;;5009653;28;20126;-79
2022/07/03 09:36:48;;;;;;;1.58;1.00;;;34.00;42.00;;;;;;5010703;28;20033;-79
2022/07/03 09:39:39;;;;;;;6.95;2.17;;;33.90;43.00;;;;;;5025601;28;20033;-79
2022/07/03 09:42:09;;;;;;;9.30;1.73;;;34.30;42.40;;;;;;5013888;28;20480;-79
2022/07/03 09:44:40;;;;;;;1.85;1.13;;;34.60;41.90;;;;;;5025061;28;20052;-79
2022/07/03 09:47:20;;;;;;;4.80;1.98;;;34.60;42.00;;;;;;5023563;28;20032;-78
2022/07/03 09:49:54;;;;;;;2.60;1.38;;;34.00;42.80;;;;;;4997168;28;20179;-79
2022/07/03 09:52:41;;;;;;;4.85;1.83;;;34.00;43.00;;;;;;5024669;28;20059;-79
2022/07/03 09:55:09;;;;;;;3.10;1.30;;;34.60;42.40;;;;;;5011574;28;20036;-79
2022/07/03 09:57:36;;;;;;;4.75;1.60;;;34.80;41.90;;;;;;5043204;28;20037;-79
2022/07/03 10:00:09;;;;;;;2.97;1.65;;;34.90;42.20;;;;;;5009410;28;20060;-78
2022/07/03 10:02:34;;;;;;;3.30;1.52;;;34.90;41.90;;;;;;5038628;28;20028;-79
2022/07/03 10:05:12;;;;;;;4.18;1.20;;;35.10;41.40;;;;;;5010021;28;20036;-78
2022/07/03 10:07:57;;;;;;;4.78;1.33;;;35.10;41.40;;;;;;5012746;28;20033;-78
2022/07/03 10:10:24;;;;;;;3.58;1.60;;;35.10;41.60;;;;;;5010468;28;20550;-78
2022/07/03 10:12:51;;;;;;;3.53;1.13;;;35.40;41.20;;;;;;5010845;28;20025;-79
2022/07/03 10:15:16;;;;;;;4.20;1.38;;;35.50;41.10;;;;;;5026492;28;20033;-79
2022/07/03 10:17:42;;;;;;;4.22;1.38;;;35.50;41.20;;;;;;4992097;28;20033;-79
2022/07/03 10:20:11;;;;;;;6.35;1.10;;;35.70;40.30;;;;;;5022988;28;20043;-78
2022/07/03 10:22:37;;;;;;;1.52;1.23;;;35.50;41.10;;;;;;4995821;28;20094;-78
2022/07/03 10:25:03;;;;;;;4.63;1.27;;;35.70;41.20;;;;;;5010639;28;20033;-78
2022/07/03 10:27:28;;;;;;;3.08;1.48;;;35.90;40.90;;;;;;4996506;28;20033;-78
2022/07/03 10:29:54;;;;;;;5.45;1.50;;;36.00;40.50;;;;;;5007847;28;20032;-79
2022/07/03 10:32:19;;;;;;;2.65;1.00;;;36.20;40.30;;;;;;5028846;28;20094;-79
2022/07/03 10:34:45;;;;;;;2.38;1.10;;;36.20;40.50;;;;;;4990779;28;20405;-78
2022/07/03 10:37:10;;;;;;;1.92;1.17;;;36.00;40.10;;;;;;4991361;28;20056;-78
2022/07/03 10:44:45;;;;;;;4.43;1.75;;;35.90;40.30;;;;;;4997759;28;20509;-79
2022/07/03 10:45:32;;;;;;;2.15;1.25;;;36.10;39.80;;;;;;5011894;28;20039;-79
2022/07/03 10:47:57;;;;;;;1.42;0.88;;;36.00;40.80;;;;;;5020934;28;20108;-78
2022/07/03 10:50:23;;;;;;;3.33;1.13;;;36.00;40.30;;;;;;5023900;28;20391;-79
2022/07/03 10:52:49;;;;;;;1.20;1.10;;;36.40;40.60;;;;;;5007605;28;20032;-79
2022/07/03 10:55:15;;;;;;;9.30;1.60;;;36.70;39.50;;;;;;5007211;28;20037;-79
2022/07/03 10:57:42;;;;;;;2.40;1.27;;;36.80;39.30;;;;;;5007821;28;20114;-77
2022/07/03 11:00:12;;;;;;;2.00;1.17;;;36.70;39.60;;;;;;5024117;28;20030;-77
2022/07/03 11:02:39;;;;;;;1.23;0.80;;;36.80;39.50;;;;;;4997368;28;20091;-77
2022/07/03 11:05:25;;;;;;;3.28;1.30;;;36.80;39.10;;;;;;5021146;28;20049;-78
2022/07/03 11:07:51;;;;;;;5.82;1.00;;;36.80;39.40;;;;;;5021305;28;20492;-77
2022/07/03 11:10:17;;;;;;;2.33;1.00;;;36.90;39.40;;;;;;5024531;28;20455;-77
2022/07/03 11:13:05;;;;;;;1.75;0.90;;;37.10;39.10;;;;;;5026396;28;20032;-77
2022/07/03 11:15:37;;;;;;;4.63;1.20;;;37.00;38.90;;;;;;5024257;28;20110;-77
2022/07/03 11:18:08;;;;;;;5.70;1.25;;;37.20;38.70;;;;;;5038113;28;20120;-77
2022/07/03 11:20:42;;;;;;;2.80;1.00;;;37.30;38.40;;;;;;5018568;28;20094;-78
2022/07/03 11:23:16;;;;;;;2.83;1.30;;;37.40;38.80;;;;;;5023321;28;20081;-78
2022/07/03 11:25:43;;;;;;;1.05;0.90;;;37.20;38.00;;;;;;5024059;28;20616;-78
2022/07/03 11:28:34;;;;;;;2.55;1.13;;;37.20;38.60;;;;;;4985928;28;20079;-78
2022/07/03 11:33:41;;;;;;;5.07;1.10;;;37.50;38.40;;;;;;5036175;28;20510;-78
2022/07/03 11:36:06;;;;;;;4.82;1.50;;;37.40;38.00;;;;;;5036561;28;20270;-78
2022/07/03 11:38:32;;;;;;;1.88;1.00;;;37.30;37.90;;;;;;4992824;28;20112;-78
2022/07/03 11:40:59;;;;;;;2.10;1.33;;;37.40;38.40;;;;;;4326428;28;10000450;-78
2022/07/03 11:43:24;;;;;;;2.47;1.20;;;37.50;37.80;;;;;;4999236;28;20099;-78
2022/07/03 11:45:50;;;;;;;4.50;1.23;;;37.30;37.10;;;;;;5018562;28;20249;-78
2022/07/03 11:48:23;;;;;;;1.20;1.00;;;37.30;37.40;;;;;;4993586;28;20369;-78
2022/07/03 11:50:49;;;;;;;3.15;1.25;;;37.20;37.70;;;;;;5003129;28;20032;-78
2022/07/03 11:53:17;;;;;;;3.08;0.88;;;37.20;37.90;;;;;;5021749;28;20041;-78
2022/07/03 11:55:48;;;;;;;1.48;0.90;;;37.40;38.20;;;;;;5016118;28;20045;-78
2022/07/03 11:58:13;;;;;;;1.20;0.80;;;37.60;37.80;;;;;;5021228;28;20117;-78
2022/07/03 12:00:39;;;;;;;2.45;1.10;;;37.70;37.80;;;;;;5014999;28;20440;-78
2022/07/03 12:03:04;;;;;;;2.20;1.25;;;37.80;36.80;;;;;;5015267;28;20047;-78
2022/07/03 12:05:30;;;;;;;2.83;1.08;;;37.80;37.10;;;;;;5002315;28;20073;-78
2022/07/03 12:08:04;;;;;;;3.55;1.45;;;37.70;37.20;;;;;;5016678;28;20038;-78
2022/07/03 12:10:39;;;;;;;3.45;1.05;;;37.90;37.40;;;;;;5004158;28;20549;-78
2022/07/03 12:13:21;;;;;;;2.75;1.25;;;38.10;35.90;;;;;;5019297;28;20038;-78
2022/07/03 12:15:47;;;;;;;2.58;0.98;;;38.10;36.30;;;;;;5004523;28;20598;-78
2022/07/03 12:18:12;;;;;;;1.63;1.15;;;38.20;36.70;;;;;;5001940;28;20045;-78
2022/07/03 12:20:40;;;;;;;4.50;1.40;;;38.20;37.40;;;;;;5005869;28;20121;-78
2022/07/03 12:23:06;;;;;;;3.53;1.40;;;38.10;36.50;;;;;;4989053;28;20489;-78
2022/07/03 12:25:31;;;;;;;0.77;0.70;;;38.30;36.30;;;;;;4987676;28;20040;-79
2022/07/03 12:27:57;;;;;;;1.55;1.10;;;38.40;36.60;;;;;;5000032;28;20492;-78
2022/07/03 12:30:25;;;;;;;5.07;1.17;;;38.50;36.50;;;;;;5017482;28;20035;-79
2022/07/03 12:32:51;;;;;;;4.72;1.40;;;38.60;36.00;;;;;;5004186;28;20062;-79
2022/07/03 12:35:26;;;;;;;3.20;1.20;;;38.90;34.70;;;;;;5016142;28;20040;-78
2022/07/03 12:37:51;;;;;;;2.70;1.20;;;38.90;34.20;;;;;;5003881;28;20038;-78
2022/07/03 12:40:18;;;;;;;1.58;0.98;;;39.00;34.50;;;;;;4994197;28;20403;-79
2022/07/03 12:42:45;;;;;;;4.68;1.20;;;39.00;35.60;;;;;;5021648;28;20111;-79
2022/07/03 12:45:12;;;;;;;3.47;1.23;;;38.80;33.80;;;;;;5024665;28;20404;-79
2022/07/03 12:47:37;;;;;;;3.22;1.33;;;38.30;34.20;;;;;;5017431;28;20065;-79
2022/07/03 12:50:05;;;;;;;3.67;0.90;;;38.40;35.20;;;;;;5007672;28;20069;-79
2022/07/03 12:52:31;;;;;;;2.88;1.30;;;38.50;35.80;;;;;;5007899;28;20461;-78
2022/07/03 12:54:57;;;;;;;3.00;1.42;;;38.70;35.20;;;;;;5004903;28;20087;-79
2022/07/03 13:00:10;;;;;;;2.55;1.40;;;38.80;34.20;;;;;;5024853;28;20175;-79
2022/07/03 13:02:36;;;;;;;3.90;1.10;;;38.80;34.10;;;;;;4993794;28;20044;-79
2022/07/03 13:05:13;;;;;;;1.45;1.10;;;38.60;33.90;;;;;;5006586;28;20025;-79